Time;durP1;ratioP1;P1;durP2;ratioP2;P2;SDS_P1;SDS_P2;PMS_P1;PMS_P2;Temp;Humidity;BMP_temperature;BMP_pressure;BME280_temperature;BME280_humidity;BME280_pressure;Samples;Min_cycle;Max_cycle;Signal;HPM_P1;HPM_P2
2023/03/10 00:00:54;;;;;;;16.58;12.73;;;;;;;5.99;100.00;98537.22;5010652;28;20034;-70
2023/03/10 00:03:20;;;;;;;15.27;13.02;;;;;;;5.96;100.00;98538.50;5011644;28;20030;-70
2023/03/10 00:05:45;;;;;;;15.00;12.48;;;;;;;5.97;100.00;98545.50;5010705;28;20038;-70
2023/03/10 00:08:10;;;;;;;15.48;12.75;;;;;;;5.96;100.00;98546.56;5016242;28;20521;-70
2023/03/10 00:10:37;;;;;;;16.15;12.98;;;;;;;5.99;100.00;98551.47;5011935;28;20037;-70
2023/03/10 00:13:02;;;;;;;15.32;12.80;;;;;;;5.98;100.00;98549.81;5010577;28;20042;-70
2023/03/10 00:15:27;;;;;;;14.90;12.45;;;;;;;5.98;100.00;98546.34;5013192;28;20029;-70
2023/03/10 00:17:54;;;;;;;15.07;12.32;;;;;;;5.96;100.00;98549.25;5011486;28;20069;-70
2023/03/10 00:20:20;;;;;;;14.30;11.88;;;;;;;5.94;100.00;98540.63;5019433;28;20045;-71
2023/03/10 00:22:45;;;;;;;14.90;11.98;;;;;;;5.97;100.00;98532.09;5013235;28;20080;-70
2023/03/10 00:25:11;;;;;;;14.27;11.73;;;;;;;5.95;100.00;98534.19;5011952;28;20175;-70
2023/03/10 00:27:36;;;;;;;13.73;11.38;;;;;;;5.99;100.00;98529.16;5011379;28;20068;-71
2023/03/10 00:30:03;;;;;;;14.82;11.90;;;;;;;5.96;100.00;98526.94;5012162;28;20053;-70
2023/03/10 00:32:29;;;;;;;12.68;11.00;;;;;;;5.98;100.00;98524.88;5012423;28;20037;-70
2023/03/10 00:34:54;;;;;;;13.45;10.70;;;;;;;5.96;100.00;98529.63;5010155;28;20030;-70
2023/03/10 00:37:19;;;;;;;14.43;10.93;;;;;;;6.00;100.00;98536.16;5012349;28;20112;-70
2023/03/10 00:39:50;;;;;;;13.40;11.60;;;;;;;5.98;100.00;98536.41;5016738;28;20053;-70
2023/03/10 00:42:15;;;;;;;11.43;10.18;;;;;;;5.93;100.00;98538.97;5011154;28;20115;-70
2023/03/10 00:44:40;;;;;;;11.70;10.25;;;;;;;5.96;100.00;98526.94;5009975;28;20074;-71
2023/03/10 00:47:06;;;;;;;13.18;10.55;;;;;;;5.95;100.00;98533.38;5011838;28;20025;-70
2023/03/10 00:49:31;;;;;;;11.63;10.23;;;;;;;6.00;100.00;98536.94;5012134;28;20440;-71
2023/03/10 00:51:56;;;;;;;10.75;9.65;;;;;;;5.99;100.00;98537.22;5009618;28;20040;-71
2023/03/10 00:54:22;;;;;;;12.13;10.20;;;;;;;6.00;100.00;98541.53;5012223;28;20034;-71
2023/03/10 00:56:47;;;;;;;12.57;10.82;;;;;;;6.03;100.00;98530.28;5010062;28;20033;-71
2023/03/10 00:59:12;;;;;;;12.20;10.85;;;;;;;6.03;100.00;98539.13;5012230;28;20056;-71
2023/03/10 01:01:40;;;;;;;12.52;10.75;;;;;;;6.06;100.00;98537.81;5009469;28;20152;-71
2023/03/10 01:04:17;;;;;;;13.55;10.32;;;;;;;6.20;100.00;98539.06;5010756;28;20566;-71
2023/03/10 01:06:44;;;;;;;12.05;10.15;;;;;;;6.20;100.00;98539.06;5012133;28;20056;-70
2023/03/10 01:09:09;;;;;;;13.75;10.23;;;;;;;6.32;100.00;98538.09;5012535;28;20065;-70
2023/03/10 01:11:34;;;;;;;15.43;10.25;;;;;;;6.44;100.00;98541.41;5010653;28;20469;-71
2023/03/10 01:14:03;;;;;;;15.63;9.45;;;;;;;6.54;100.00;98532.66;5011595;28;20033;-71
2023/03/10 01:16:29;;;;;;;13.18;8.98;;;;;;;6.59;100.00;98529.19;5024290;28;20470;-71
2023/03/10 01:18:55;;;;;;;13.50;9.10;;;;;;;6.70;100.00;98529.03;5012399;28;20037;-72
2023/03/10 01:21:24;;;;;;;15.05;8.88;;;;;;;6.77;100.00;98526.13;5012025;28;20040;-70
2023/03/10 01:23:49;;;;;;;11.73;8.23;;;;;;;6.87;100.00;98526.19;5011819;28;20041;-69
2023/03/10 01:26:15;;;;;;;14.07;8.20;;;;;;;6.96;100.00;98515.78;5011003;28;20113;-71
2023/03/10 01:28:40;;;;;;;11.85;8.35;;;;;;;7.03;100.00;98513.66;5011939;28;20056;-69
2023/03/10 01:31:06;;;;;;;14.07;8.23;;;;;;;7.09;100.00;98519.88;5011389;28;20042;-70
2023/03/10 01:33:34;;;;;;;9.98;8.40;;;;;;;7.20;100.00;98508.13;5011158;28;20030;-70
2023/03/10 01:35:59;;;;;;;11.98;9.07;;;;;;;7.27;100.00;98497.94;5010807;28;20477;-71
2023/03/10 01:38:24;;;;;;;10.20;8.73;;;;;;;7.33;100.00;98506.03;5012187;28;20045;-70
2023/03/10 01:40:50;;;;;;;17.50;9.50;;;;;;;7.37;100.00;98493.69;4993990;28;20096;-71
2023/03/10 01:43:18;;;;;;;11.63;8.95;;;;;;;7.40;100.00;98501.25;5011569;28;20120;-70
2023/03/10 01:45:43;;;;;;;11.95;8.60;;;;;;;7.43;100.00;98506.09;5011750;28;20030;-70
2023/03/10 01:48:09;;;;;;;11.27;9.32;;;;;;;7.47;100.00;98491.03;5012170;28;20040;-71
2023/03/10 01:50:34;;;;;;;13.88;9.68;;;;;;;7.51;100.00;98481.38;5017254;28;20045;-71
2023/03/10 01:53:00;;;;;;;12.90;9.48;;;;;;;7.54;100.00;98486.22;5010526;28;20474;-71
2023/03/10 01:55:32;;;;;;;10.73;9.48;;;;;;;7.56;100.00;98484.09;5015040;28;20080;-70
2023/03/10 01:57:58;;;;;;;13.00;9.57;;;;;;;7.60;100.00;98481.66;5010497;28;20033;-70
2023/03/10 02:00:25;;;;;;;15.13;10.20;;;;;;;7.63;100.00;98486.53;5010892;28;20057;-70
2023/03/10 02:02:56;;;;;;;12.63;9.85;;;;;;;7.63;100.00;98479.25;5009444;28;20150;-71
2023/03/10 02:05:23;;;;;;;12.23;10.23;;;;;;;7.68;100.00;98481.16;5013399;28;20026;-71
2023/03/10 02:07:49;;;;;;;15.18;10.60;;;;;;;7.70;100.00;98481.72;5013827;28;20496;-72
2023/03/10 02:10:15;;;;;;;16.67;10.55;;;;;;;7.72;100.00;98492.22;5016439;28;20034;-70
2023/03/10 02:12:44;;;;;;;13.73;10.18;;;;;;;7.72;100.00;98489.53;5016049;28;20026;-71
2023/03/10 02:15:10;;;;;;;15.00;10.35;;;;;;;7.74;100.00;98482.78;5014308;28;22135;-70
2023/03/10 02:17:37;;;;;;;16.40;10.55;;;;;;;7.79;100.00;98482.00;4996828;28;20032;-71
2023/03/10 02:20:16;;;;;;;11.90;9.93;;;;;;;7.74;100.00;98477.41;5014380;28;20500;-70
2023/03/10 02:22:41;;;;;;;13.02;9.45;;;;;;;7.74;100.00;98472.00;5015727;28;20036;-70
2023/03/10 02:25:18;;;;;;;11.90;9.10;;;;;;;7.75;100.00;98467.47;5014334;28;20034;-71
2023/03/10 02:27:43;;;;;;;11.40;8.93;;;;;;;7.73;100.00;98464.19;5015592;28;20466;-71
2023/03/10 02:30:33;;;;;;;13.13;9.38;;;;;;;7.76;100.00;98464.50;5024235;28;20168;-70
2023/03/10 02:33:03;;;;;;;13.20;9.27;;;;;;;7.76;100.00;98451.03;5011956;28;20100;-71
2023/03/10 02:35:28;;;;;;;12.55;9.13;;;;;;;7.78;100.00;98454.25;5014227;28;20461;-72
2023/03/10 02:37:54;;;;;;;12.18;8.80;;;;;;;7.80;100.00;98448.63;5013632;28;20117;-71
2023/03/10 02:40:36;;;;;;;13.48;9.07;;;;;;;7.80;100.00;98446.75;5014881;28;20096;-71
2023/03/10 02:43:10;;;;;;;11.82;8.55;;;;;;;7.77;100.00;98441.06;4997565;28;20038;-70
2023/03/10 02:45:38;;;;;;;13.60;9.02;;;;;;;7.77;100.00;98441.06;5014470;28;20065;-71
2023/03/10 02:48:03;;;;;;;11.55;8.57;;;;;;;7.77;100.00;98446.44;5021172;28;20083;-70
2023/03/10 02:50:34;;;;;;;10.15;7.85;;;;;;;7.79;100.00;98436.25;5019920;28;20077;-71
2023/03/10 02:53:10;;;;;;;13.57;8.60;;;;;;;7.77;100.00;98433.78;4994821;28;20042;-72
2023/03/10 02:55:35;;;;;;;13.57;8.63;;;;;;;7.74;100.00;98430.84;5010858;28;20379;-71
2023/03/10 02:58:01;;;;;;;10.18;7.63;;;;;;;7.72;100.00;98428.41;5013896;28;20120;-71
2023/03/10 03:00:28;;;;;;;11.85;8.27;;;;;;;7.69;100.00;98423.56;5013207;28;20034;-71
2023/03/10 03:02:53;;;;;;;10.07;7.63;;;;;;;7.66;100.00;98428.66;5017983;28;20037;-70
2023/03/10 03:05:18;;;;;;;12.95;7.25;;;;;;;7.64;100.00;98423.56;4980493;28;20022;-71
2023/03/10 03:07:44;;;;;;;10.13;7.72;;;;;;;7.58;100.00;98422.72;5013925;28;20030;-71
2023/03/10 03:10:10;;;;;;;9.80;7.25;;;;;;;7.59;100.00;98413.59;5010471;28;20034;-71
2023/03/10 03:12:35;;;;;;;10.60;7.30;;;;;;;7.61;100.00;98426.78;5014721;28;20053;-71
2023/03/10 03:15:00;;;;;;;13.98;7.70;;;;;;;7.58;100.00;98411.97;5012384;28;20064;-71
2023/03/10 03:17:27;;;;;;;14.95;8.13;;;;;;;7.56;100.00;98410.59;5014513;28;20125;-72
2023/03/10 03:19:52;;;;;;;10.73;7.32;;;;;;;7.60;100.00;98409.81;5013445;28;20030;-71
2023/03/10 03:22:18;;;;;;;14.50;7.55;;;;;;;7.60;100.00;98404.41;5017763;28;20025;-71
2023/03/10 03:24:43;;;;;;;13.45;7.45;;;;;;;7.55;100.00;98396.34;5034048;28;20114;-71
2023/03/10 03:27:08;;;;;;;15.85;7.10;;;;;;;7.62;100.00;98407.66;5013466;28;20034;-72
2023/03/10 03:29:34;;;;;;;16.30;7.43;;;;;;;7.67;100.00;98403.34;5013955;28;20029;-71
2023/03/10 03:31:59;;;;;;;11.23;6.18;;;;;;;7.69;100.00;98409.28;5013288;28;20038;-71
2023/03/10 03:34:25;;;;;;;12.95;6.38;;;;;;;7.70;100.00;98400.13;5013182;28;20030;-70
2023/03/10 03:36:50;;;;;;;12.23;6.72;;;;;;;7.73;100.00;98407.66;5013267;28;20173;-72
2023/03/10 03:39:16;;;;;;;12.93;6.20;;;;;;;7.75;100.00;98406.34;5016371;28;20034;-72
2023/03/10 03:41:42;;;;;;;13.32;6.43;;;;;;;7.76;100.00;98402.56;4996524;28;20038;-71
2023/03/10 03:44:08;;;;;;;11.55;5.93;;;;;;;7.80;100.00;98405.53;5013813;28;20046;-72
2023/03/10 03:46:33;;;;;;;8.90;5.13;;;;;;;7.76;100.00;98410.66;5012130;28;20044;-71
2023/03/10 03:48:58;;;;;;;14.25;5.13;;;;;;;7.74;100.00;98410.09;5013613;28;20073;-71
2023/03/10 03:51:24;;;;;;;13.60;5.00;;;;;;;7.79;100.00;98403.94;5012682;28;20065;-70
2023/03/10 03:53:49;;;;;;;13.80;5.25;;;;;;;7.77;100.00;98408.75;5011243;28;20462;-72
2023/03/10 03:56:15;;;;;;;12.02;5.15;;;;;;;7.78;100.00;98399.63;5011624;28;20037;-71
2023/03/10 03:58:40;;;;;;;12.63;4.85;;;;;;;7.77;100.00;98398.78;5020986;28;20029;-71
2023/03/10 04:01:05;;;;;;;13.30;5.15;;;;;;;7.78;100.00;98394.22;5019229;28;20061;-69
2023/03/10 04:03:31;;;;;;;15.35;4.68;;;;;;;7.78;100.00;98394.22;5012049;28;20038;-70
2023/03/10 04:05:56;;;;;;;11.27;4.35;;;;;;;7.80;100.00;98394.75;4995443;28;20057;-72
2023/03/10 04:08:21;;;;;;;14.68;4.75;;;;;;;7.79;100.00;98390.47;5012848;28;20103;-71
2023/03/10 04:10:52;;;;;;;10.63;4.28;;;;;;;7.80;100.00;98386.69;5010231;28;20022;-71
2023/03/10 04:13:17;;;;;;;11.00;4.30;;;;;;;7.78;100.00;98384.25;5015855;28;20034;-71
2023/03/10 04:15:42;;;;;;;10.98;4.07;;;;;;;7.81;100.00;98389.13;5007501;28;20036;-72
2023/03/10 04:18:09;;;;;;;15.20;4.40;;;;;;;7.81;100.00;98386.41;5013395;28;20030;-70
2023/03/10 04:20:35;;;;;;;15.70;4.70;;;;;;;7.85;100.00;98383.19;5011755;28;20537;-71
2023/03/10 04:23:00;;;;;;;13.55;4.13;;;;;;;7.84;100.00;98382.41;5013535;28;20030;-70
2023/03/10 04:25:26;;;;;;;11.93;4.13;;;;;;;7.81;100.00;98377.53;5011507;28;20022;-72
2023/03/10 04:27:51;;;;;;;14.00;3.90;;;;;;;7.80;100.00;98381.31;5012636;28;20401;-71
2023/03/10 04:30:17;;;;;;;12.48;3.47;;;;;;;7.84;100.00;98386.97;5012228;28;20054;-71
2023/03/10 04:32:42;;;;;;;14.40;3.90;;;;;;;7.84;100.00;98384.28;5013647;28;20041;-72
2023/03/10 04:35:10;;;;;;;16.60;3.95;;;;;;;7.84;100.00;98377.00;5017250;28;20435;-71
2023/03/10 04:37:35;;;;;;;10.20;3.35;;;;;;;7.80;100.00;98387.50;5012094;28;20112;-69
2023/03/10 04:40:07;;;;;;;13.85;3.60;;;;;;;7.78;100.00;98386.97;5012230;28;20037;-68
2023/03/10 04:42:32;;;;;;;11.65;3.17;;;;;;;7.76;100.00;98364.88;5011242;28;20454;-69
2023/03/10 04:44:57;;;;;;;11.65;3.22;;;;;;;7.76;100.00;98374.81;5010322;28;20124;-68
2023/03/10 04:47:23;;;;;;;15.82;3.55;;;;;;;7.74;100.00;98371.59;5011884;28;20033;-69
2023/03/10 04:49:48;;;;;;;12.93;3.28;;;;;;;7.72;100.00;98365.69;5014772;28;20922;-71
2023/03/10 04:52:14;;;;;;;14.50;3.42;;;;;;;7.66;100.00;98364.88;5011903;28;20030;-72
2023/03/10 04:54:40;;;;;;;16.92;3.53;;;;;;;7.70;100.00;98365.13;5011344;28;20481;-71
2023/03/10 04:57:05;;;;;;;16.20;3.63;;;;;;;7.68;100.00;98362.72;5010819;28;20038;-70
2023/03/10 04:59:30;;;;;;;14.98;3.53;;;;;;;7.67;100.00;98365.66;4995445;28;20045;-68
2023/03/10 05:01:56;;;;;;;18.02;3.90;;;;;;;7.69;100.00;98369.72;5008815;28;20037;-69
2023/03/10 05:04:21;;;;;;;15.27;3.78;;;;;;;7.69;100.00;98364.34;5011984;28;20067;-69
2023/03/10 05:06:51;;;;;;;15.55;3.90;;;;;;;7.72;100.00;98365.69;5010968;28;20053;-68
2023/03/10 05:09:17;;;;;;;13.35;4.07;;;;;;;7.73;100.00;98359.22;5015545;28;20097;-71
2023/03/10 05:11:42;;;;;;;17.05;4.07;;;;;;;7.72;100.00;98368.38;5013089;28;20041;-72
2023/03/10 05:14:10;;;;;;;18.92;3.58;;;;;;;7.72;100.00;98365.69;5012135;28;20022;-70
2023/03/10 05:16:35;;;;;;;17.63;3.53;;;;;;;7.67;100.00;98360.28;5012747;28;20033;-71
2023/03/10 05:19:00;;;;;;;16.98;3.78;;;;;;;7.73;100.00;98353.81;5012747;28;20381;-71
2023/03/10 05:21:26;;;;;;;17.17;3.80;;;;;;;7.70;100.00;98365.13;5012425;28;20109;-72
2023/03/10 05:23:51;;;;;;;17.52;3.80;;;;;;;7.70;100.00;98357.06;5010844;28;20072;-72
2023/03/10 05:26:16;;;;;;;17.15;4.03;;;;;;;7.69;100.00;98363.53;5011854;28;20432;-72
2023/03/10 05:28:42;;;;;;;17.08;4.00;;;;;;;7.68;100.00;98361.91;4994623;28;20030;-71
2023/03/10 05:31:11;;;;;;;15.15;3.88;;;;;;;7.69;100.00;98363.53;5011303;28;20065;-71
2023/03/10 05:33:36;;;;;;;14.90;3.83;;;;;;;7.67;100.00;98366.50;5010908;28;20034;-70
2023/03/10 05:36:10;;;;;;;14.18;3.72;;;;;;;7.68;100.00;98362.72;5016357;28;20125;-72
2023/03/10 05:38:36;;;;;;;19.23;3.97;;;;;;;7.70;100.00;98365.97;5034099;28;20036;-72
2023/03/10 05:41:06;;;;;;;20.98;4.70;;;;;;;7.70;100.00;98373.22;5024070;28;20529;-71
2023/03/10 05:43:32;;;;;;;21.85;5.15;;;;;;;7.72;100.00;98371.06;5017367;28;20075;-72
2023/03/10 05:45:58;;;;;;;22.38;4.20;;;;;;;7.72;100.00;98369.19;5006541;28;20038;-70
2023/03/10 05:48:24;;;;;;;18.00;4.55;;;;;;;7.71;100.00;98372.94;5016157;28;20436;-70
2023/03/10 05:50:58;;;;;;;18.15;4.28;;;;;;;7.71;100.00;98372.94;5015284;28;20745;-71
2023/03/10 05:53:24;;;;;;;17.85;4.03;;;;;;;7.70;100.00;98365.13;4997690;28;20456;-71
2023/03/10 05:55:49;;;;;;;17.25;3.88;;;;;;;7.69;100.00;98374.31;5012724;28;20033;-70
2023/03/10 05:58:15;;;;;;;20.05;4.55;;;;;;;7.67;100.00;98373.75;5015005;28;20037;-71
2023/03/10 06:00:40;;;;;;;18.55;4.03;;;;;;;7.67;100.00;98366.50;5017140;28;20017;-71
2023/03/10 06:03:05;;;;;;;20.13;4.82;;;;;;;7.67;100.00;98366.50;5021569;28;20052;-71
2023/03/10 06:05:31;;;;;;;20.20;4.72;;;;;;;7.67;100.00;98374.56;5014311;28;20037;-71
2023/03/10 06:07:56;;;;;;;15.50;4.57;;;;;;;7.64;100.00;98372.41;5014878;28;20504;-71
2023/03/10 06:10:21;;;;;;;15.57;3.83;;;;;;;7.64;100.00;98364.34;5014185;28;20120;-71
2023/03/10 06:12:46;;;;;;;12.93;3.63;;;;;;;7.66;100.00;98372.94;5014742;28;20477;-71
2023/03/10 06:15:12;;;;;;;18.77;4.50;;;;;;;7.63;100.00;98374.28;5014200;28;20501;-70
2023/03/10 06:17:37;;;;;;;16.98;4.40;;;;;;;7.67;100.00;98376.44;5014552;28;20025;-72
2023/03/10 06:20:03;;;;;;;16.40;3.83;;;;;;;7.67;100.00;98381.81;5021409;28;20027;-72
2023/03/10 06:22:29;;;;;;;19.25;4.90;;;;;;;7.70;100.00;98389.34;5014096;28;20057;-71
2023/03/10 06:24:54;;;;;;;17.35;4.07;;;;;;;7.72;100.00;98381.84;5014523;28;20111;-71
2023/03/10 06:27:19;;;;;;;17.88;4.00;;;;;;;7.72;100.00;98389.91;4997157;28;20038;-71
2023/03/10 06:29:47;;;;;;;20.38;4.53;;;;;;;7.73;100.00;98391.50;5013321;28;20098;-72
2023/03/10 06:32:12;;;;;;;16.90;4.22;;;;;;;7.73;100.00;98394.22;5014438;28;20116;-71
2023/03/10 06:34:37;;;;;;;22.50;5.07;;;;;;;7.73;100.00;98380.75;5020382;28;20053;-71
2023/03/10 06:37:03;;;;;;;17.90;4.60;;;;;;;7.70;100.00;98392.06;4997916;28;20052;-71
2023/03/10 06:39:28;;;;;;;16.48;4.80;;;;;;;7.75;100.00;98378.63;4996829;28;20037;-71
2023/03/10 06:41:53;;;;;;;17.58;4.40;;;;;;;7.69;100.00;98385.88;5013292;28;20108;-71
2023/03/10 06:44:19;;;;;;;16.38;4.10;;;;;;;7.67;100.00;98387.19;5013086;28;20052;-71
2023/03/10 06:46:47;;;;;;;10.63;3.63;;;;;;;7.66;100.00;98393.69;5013857;28;20068;-71
2023/03/10 06:49:12;;;;;;;13.40;3.97;;;;;;;7.68;100.00;98378.06;5014366;28;20034;-72
2023/03/10 06:51:38;;;;;;;14.60;4.00;;;;;;;7.68;100.00;98391.53;5014152;28;20117;-71
2023/03/10 06:54:04;;;;;;;12.93;3.85;;;;;;;7.69;100.00;98388.56;5012276;28;20355;-71
2023/03/10 06:56:29;;;;;;;10.80;3.85;;;;;;;7.70;100.00;98392.06;4996466;28;20489;-72
2023/03/10 06:58:54;;;;;;;11.43;3.40;;;;;;;7.70;100.00;98394.75;5013712;28;20033;-72
2023/03/10 07:01:26;;;;;;;12.38;3.42;;;;;;;7.72;100.00;98389.91;5011624;28;20034;-72
2023/03/10 07:03:52;;;;;;;15.88;4.18;;;;;;;7.76;100.00;98385.59;5013425;28;20061;-72
2023/03/10 07:06:17;;;;;;;12.85;3.70;;;;;;;7.77;100.00;98395.31;5013376;28;20030;-71
2023/03/10 07:08:42;;;;;;;11.93;3.78;;;;;;;7.82;100.00;98389.94;5014548;28;20544;-71
2023/03/10 07:11:08;;;;;;;9.70;3.72;;;;;;;7.84;100.00;98393.16;4994356;28;20040;-72
2023/03/10 07:13:33;;;;;;;14.65;4.97;;;;;;;7.86;100.00;98398.28;5021131;28;20044;-70
2023/03/10 07:15:59;;;;;;;15.98;4.95;;;;;;;7.87;100.00;98398.00;5013635;28;20117;-71
2023/03/10 07:18:28;;;;;;;16.83;4.65;;;;;;;7.90;100.00;98396.69;5013089;28;20100;-72
2023/03/10 07:20:55;;;;;;;14.27;4.72;;;;;;;7.93;100.00;98402.31;5015733;28;20048;-71
2023/03/10 07:23:21;;;;;;;22.98;5.40;;;;;;;7.96;100.00;98396.41;5021065;28;20034;-72
2023/03/10 07:25:54;;;;;;;18.92;4.32;;;;;;;7.99;100.00;98395.88;4996325;28;20088;-71
2023/03/10 07:28:20;;;;;;;21.10;4.13;;;;;;;8.02;100.00;98409.84;4996382;28;20124;-71
2023/03/10 07:30:45;;;;;;;18.13;3.92;;;;;;;8.07;100.00;98405.28;5012386;28;20113;-71
2023/03/10 07:33:10;;;;;;;15.70;3.67;;;;;;;8.12;100.00;98404.47;4999611;28;20358;-71
2023/03/10 07:35:36;;;;;;;18.38;4.25;;;;;;;8.19;100.00;98410.41;5014425;28;20484;-69
2023/03/10 07:38:02;;;;;;;19.58;4.20;;;;;;;8.27;100.00;98409.91;5014055;28;20032;-69
2023/03/10 07:40:27;;;;;;;17.77;4.10;;;;;;;8.34;100.00;98413.09;5012904;28;20125;-72
2023/03/10 07:42:53;;;;;;;15.45;3.45;;;;;;;8.37;100.00;98424.44;5011829;28;20092;-69
2023/03/10 07:45:22;;;;;;;15.98;4.00;;;;;;;8.41;100.00;98418.25;5011631;28;20057;-71
2023/03/10 07:47:50;;;;;;;15.23;3.33;;;;;;;8.47;100.00;98419.06;5023152;28;20045;-72
2023/03/10 07:50:15;;;;;;;16.40;3.58;;;;;;;8.48;100.00;98418.00;5012373;28;20033;-76
2023/03/10 07:52:41;;;;;;;14.38;3.05;;;;;;;8.50;100.00;98422.03;5012741;28;20030;-76
2023/03/10 07:55:06;;;;;;;18.05;3.42;;;;;;;8.54;100.00;98421.50;5026357;28;20040;-75
2023/03/10 07:57:32;;;;;;;14.60;3.05;;;;;;;8.54;100.00;98418.78;5022648;28;20049;-74
2023/03/10 07:59:57;;;;;;;14.52;3.20;;;;;;;8.53;100.00;98409.91;5033704;28;20488;-74
2023/03/10 08:02:22;;;;;;;15.00;3.03;;;;;;;8.56;100.00;98414.75;5026428;28;20163;-74
2023/03/10 08:04:51;;;;;;;14.85;3.05;;;;;;;8.58;100.00;98423.38;5028253;28;20124;-74
2023/03/10 08:07:17;;;;;;;13.32;2.90;;;;;;;8.63;100.00;98420.66;5033265;28;20030;-72
2023/03/10 08:09:49;;;;;;;9.85;2.63;;;;;;;8.66;100.00;98420.13;5033696;28;20596;-73
2023/03/10 08:12:14;;;;;;;13.63;3.20;;;;;;;8.69;100.00;98416.06;5032196;28;20036;-73
2023/03/10 08:14:39;;;;;;;17.20;3.35;;;;;;;8.74;100.00;98416.09;5028942;28;20037;-73
2023/03/10 08:17:05;;;;;;;11.40;2.78;;;;;;;8.75;100.00;98422.28;5015516;28;20489;-71
2023/03/10 08:19:30;;;;;;;12.40;2.88;;;;;;;8.80;100.00;98419.56;5032879;28;20033;-73
2023/03/10 08:21:56;;;;;;;12.23;2.50;;;;;;;8.96;100.00;98423.03;5033296;28;20025;-70
2023/03/10 08:24:22;;;;;;;11.25;2.90;;;;;;;9.04;100.00;98425.16;5032991;28;20028;-72
2023/03/10 08:26:48;;;;;;;11.40;2.78;;;;;;;9.25;100.00;98422.41;5033140;28;20036;-72
2023/03/10 08:29:14;;;;;;;13.25;2.72;;;;;;;9.29;100.00;98424.28;5022887;28;20034;-72
2023/03/10 08:31:40;;;;;;;15.20;3.80;;;;;;;9.24;100.00;98432.41;5032802;28;20021;-71
2023/03/10 08:34:05;;;;;;;13.80;3.17;;;;;;;9.32;100.00;98425.63;5032825;28;20079;-71
2023/03/10 08:36:30;;;;;;;12.68;3.03;;;;;;;9.36;100.00;98422.09;5032900;28;20025;-70
2023/03/10 08:38:59;;;;;;;12.32;2.80;;;;;;;9.48;100.00;98437.13;5031802;28;20056;-71
2023/03/10 08:41:44;;;;;;;9.85;2.88;;;;;;;9.39;100.00;98432.34;5015085;28;20479;-72
2023/03/10 08:44:14;;;;;;;14.20;2.78;;;;;;;9.50;100.00;98425.00;5017479;28;20120;-71
2023/03/10 08:46:40;;;;;;;10.45;3.10;;;;;;;9.45;100.00;98425.03;5020656;28;20029;-73
2023/03/10 08:49:06;;;;;;;13.82;3.28;;;;;;;9.49;100.00;98425.25;5032800;28;20474;-74
2023/03/10 08:51:31;;;;;;;16.02;3.30;;;;;;;9.49;100.00;98431.47;5032604;28;20037;-73
2023/03/10 08:53:57;;;;;;;12.73;3.08;;;;;;;9.58;100.00;98429.78;5032366;28;20029;-72
2023/03/10 08:56:23;;;;;;;10.73;3.13;;;;;;;9.60;100.00;98426.81;5014402;28;20500;-74
2023/03/10 08:58:49;;;;;;;14.32;3.40;;;;;;;9.60;100.00;98429.50;5023678;28;20033;-74
2023/03/10 09:01:16;;;;;;;11.30;2.35;;;;;;;9.56;100.00;98434.69;5011357;28;20120;-72
2023/03/10 09:03:43;;;;;;;13.82;3.05;;;;;;;9.52;100.00;98433.59;5031922;28;20076;-73
2023/03/10 09:06:08;;;;;;;13.45;3.47;;;;;;;9.51;100.00;98436.59;5005677;28;20029;-73
2023/03/10 09:08:34;;;;;;;15.77;3.53;;;;;;;9.49;100.00;98426.06;5021927;28;20029;-73
2023/03/10 09:11:00;;;;;;;12.20;3.17;;;;;;;9.50;100.00;98426.88;5032636;28;20386;-74
2023/03/10 09:13:25;;;;;;;12.98;3.28;;;;;;;9.52;100.00;98422.00;5029543;28;20041;-72
2023/03/10 09:15:51;;;;;;;14.02;3.22;;;;;;;9.54;100.00;98427.94;5024545;28;20030;-73
2023/03/10 09:18:18;;;;;;;10.57;3.00;;;;;;;9.55;100.00;98418.75;5032552;28;20469;-72
2023/03/10 09:20:44;;;;;;;10.07;2.78;;;;;;;9.56;100.00;98420.38;5032686;28;20040;-72
2023/03/10 09:23:11;;;;;;;14.70;3.33;;;;;;;9.55;100.00;98421.47;5025334;28;20405;-73
2023/03/10 09:25:39;;;;;;;13.85;3.08;;;;;;;9.56;100.00;98417.69;5025361;28;20075;-74
2023/03/10 09:28:05;;;;;;;15.50;3.20;;;;;;;9.55;100.00;98429.56;5032052;28;20385;-74
2023/03/10 09:30:30;;;;;;;13.00;3.63;;;;;;;9.52;100.00;98427.41;5032406;28;20030;-74
2023/03/10 09:32:55;;;;;;;9.45;2.65;;;;;;;9.51;100.00;98425.78;5029510;28;20036;-73
2023/03/10 09:35:21;;;;;;;12.35;3.65;;;;;;;9.44;100.00;98425.31;5029623;28;20022;-75
2023/03/10 09:37:46;;;;;;;10.68;2.90;;;;;;;9.43;100.00;98420.97;5014681;28;20536;-75
2023/03/10 09:40:19;;;;;;;10.07;2.63;;;;;;;9.42;100.00;98435.56;5030981;28;20064;-75
2023/03/10 09:42:47;;;;;;;10.32;2.67;;;;;;;9.39;100.00;98435.03;5027532;28;20064;-75
2023/03/10 09:45:49;;;;;;;8.35;2.30;;;;;;;9.37;100.00;98434.47;5012926;28;20072;-75
2023/03/10 09:48:35;;;;;;;8.55;2.10;;;;;;;9.37;100.00;98434.47;5031889;28;20033;-77
2023/03/10 09:51:10;;;;;;;9.60;2.63;;;;;;;9.28;100.00;98433.44;5031792;28;20041;-76
2023/03/10 09:53:47;;;;;;;8.13;2.25;;;;;;;9.31;100.00;98438.28;5014007;28;20056;-75
2023/03/10 09:56:18;;;;;;;9.98;2.50;;;;;;;9.36;100.00;98438.28;5030821;28;20102;-73
2023/03/10 09:58:55;;;;;;;9.27;2.90;;;;;;;9.38;100.00;98441.50;5022394;28;20104;-72
2023/03/10 10:01:24;;;;;;;11.07;2.72;;;;;;;9.38;100.00;98441.50;5007650;28;20034;-73
2023/03/10 10:03:53;;;;;;;12.35;2.90;;;;;;;9.38;100.00;98452.31;5032150;28;20033;-73
2023/03/10 10:06:25;;;;;;;14.65;3.03;;;;;;;9.40;100.00;98450.16;5027752;28;20038;-72
2023/03/10 10:09:10;;;;;;;9.55;2.67;;;;;;;9.44;100.00;98452.28;4991374;28;20125;-73
2023/03/10 10:11:36;;;;;;;11.88;2.72;;;;;;;9.36;100.00;98453.66;4991128;28;20026;-74
2023/03/10 10:14:14;;;;;;;11.90;3.17;;;;;;;9.34;100.00;98455.81;5002831;28;20477;-74
2023/03/10 10:16:51;;;;;;;13.30;3.15;;;;;;;9.29;100.00;98463.97;4991745;28;20034;-74
2023/03/10 10:19:22;;;;;;;13.00;3.30;;;;;;;9.23;100.00;98457.75;4992256;28;20088;-73
2023/03/10 10:22:14;;;;;;;14.10;3.15;;;;;;;9.21;100.00;98458.03;5012230;28;20034;-74
2023/03/10 10:24:39;;;;;;;12.57;2.83;;;;;;;9.18;100.00;98468.59;5004794;28;20524;-72
2023/03/10 10:27:05;;;;;;;15.13;3.28;;;;;;;9.13;100.00;98461.28;5015531;28;20710;-73
2023/03/10 10:29:36;;;;;;;12.18;2.80;;;;;;;9.12;100.00;98464.25;5020780;28;20465;-73
2023/03/10 10:32:13;;;;;;;12.02;3.30;;;;;;;9.11;100.00;98457.25;5035406;28;20029;-73
2023/03/10 10:34:44;;;;;;;16.30;3.25;;;;;;;9.07;100.00;98451.59;5011499;28;20362;-73
2023/03/10 10:37:28;;;;;;;13.50;3.58;;;;;;;9.11;100.00;98451.88;5016397;28;20539;-72
2023/03/10 10:39:55;;;;;;;10.65;2.90;;;;;;;9.11;100.00;98452.66;5035218;28;20033;-74
2023/03/10 10:42:32;;;;;;;14.35;3.63;;;;;;;9.11;100.00;98449.97;5028260;28;20034;-72
2023/03/10 10:45:18;;;;;;;11.18;3.70;;;;;;;9.16;100.00;98444.56;5029134;28;20084;-74
2023/03/10 10:47:48;;;;;;;15.55;3.53;;;;;;;9.16;100.00;98443.75;5033298;28;20455;-78
2023/03/10 10:50:21;;;;;;;13.30;3.70;;;;;;;9.16;100.00;98451.84;5032946;28;20481;-73
2023/03/10 10:52:49;;;;;;;13.77;4.20;;;;;;;9.11;100.00;98438.38;5033476;28;20045;-75
2023/03/10 10:55:33;;;;;;;13.25;3.53;;;;;;;9.12;100.00;98427.31;5017065;28;20453;-71
2023/03/10 10:58:00;;;;;;;13.95;3.80;;;;;;;9.13;100.00;98433.50;5034663;28;20444;-71
2023/03/10 11:00:26;;;;;;;16.35;4.10;;;;;;;9.12;100.00;98426.47;5033584;28;20033;-73
2023/03/10 11:02:52;;;;;;;13.70;3.67;;;;;;;9.10;100.00;98417.88;5025513;28;20116;-71
2023/03/10 11:05:28;;;;;;;12.00;3.42;;;;;;;9.11;100.00;98417.59;5030009;28;20030;-71
2023/03/10 11:07:54;;;;;;;14.50;3.28;;;;;;;9.09;100.00;98421.63;5033513;28;20041;-72
2023/03/10 11:10:26;;;;;;;15.07;3.10;;;;;;;9.09;100.00;98418.94;5034889;28;20041;-72
2023/03/10 11:13:17;;;;;;;11.25;3.20;;;;;;;9.10;100.00;98428.66;5016855;28;20124;-71
2023/03/10 11:16:05;;;;;;;9.70;3.10;;;;;;;9.09;100.00;98427.03;5032847;28;20041;-70
2023/03/10 11:18:39;;;;;;;8.85;3.33;;;;;;;9.04;100.00;98425.16;5034130;28;20121;-70
2023/03/10 11:21:22;;;;;;;8.98;3.20;;;;;;;9.09;100.00;98427.03;5024156;28;20093;-72
2023/03/10 11:23:57;;;;;;;10.52;3.53;;;;;;;9.12;100.00;98421.09;5034765;28;20040;-73
2023/03/10 11:27:00;;;;;;;8.95;3.30;;;;;;;9.15;100.00;98420.53;5034549;28;20029;-74